sensor_id;sensor_type;location;lat;lon;timestamp;temperature;humidity
46494;DHT22;53214;49.314;6.280;2022-07-23T00:00:24;21.20;99.90
46494;DHT22;53214;49.314;6.280;2022-07-23T00:02:51;21.10;99.90
46494;DHT22;53214;49.314;6.280;2022-07-23T00:05:18;21.00;99.90
46494;DHT22;53214;49.314;6.280;2022-07-23T00:07:45;20.90;99.90
46494;DHT22;53214;49.314;6.280;2022-07-23T00:10:13;20.30;99.90
46494;DHT22;53214;49.314;6.280;2022-07-23T00:12:40;19.80;99.90
46494;DHT22;53214;49.314;6.280;2022-07-23T00:15:18;19.70;99.90
46494;DHT22;53214;49.314;6.280;2022-07-23T00:17:45;19.70;99.90
46494;DHT22;53214;49.314;6.280;2022-07-23T00:20:12;19.80;99.90
46494;DHT22;53214;49.314;6.280;2022-07-23T00:22:52;20.00;99.90
46494;DHT22;53214;49.314;6.280;2022-07-23T00:25:21;20.10;99.90
46494;DHT22;53214;49.314;6.280;2022-07-23T00:27:54;20.20;99.90
46494;DHT22;53214;49.314;6.280;2022-07-23T00:30:21;20.20;99.90
46494;DHT22;53214;49.314;6.280;2022-07-23T00:32:51;20.30;99.90
46494;DHT22;53214;49.314;6.280;2022-07-23T00:35:27;20.30;99.90
46494;DHT22;53214;49.314;6.280;2022-07-23T00:37:56;20.30;99.90
46494;DHT22;53214;49.314;6.280;2022-07-23T00:40:23;20.30;99.90
46494;DHT22;53214;49.314;6.280;2022-07-23T00:42:50;20.30;99.90
46494;DHT22;53214;49.314;6.280;2022-07-23T00:45:17;20.20;99.90
46494;DHT22;53214;49.314;6.280;2022-07-23T00:47:44;20.20;99.90
46494;DHT22;53214;49.314;6.280;2022-07-23T00:50:11;20.20;99.90
46494;DHT22;53214;49.314;6.280;2022-07-23T00:52:40;20.20;99.90
46494;DHT22;53214;49.314;6.280;2022-07-23T00:55:08;20.20;99.90
46494;DHT22;53214;49.314;6.280;2022-07-23T00:57:37;20.30;99.90
46494;DHT22;53214;49.314;6.280;2022-07-23T01:00:06;20.40;99.90
46494;DHT22;53214;49.314;6.280;2022-07-23T01:02:34;20.40;99.90
46494;DHT22;53214;49.314;6.280;2022-07-23T01:05:01;20.40;99.90
46494;DHT22;53214;49.314;6.280;2022-07-23T01:07:28;20.40;99.90
46494;DHT22;53214;49.314;6.280;2022-07-23T01:09:56;20.40;99.90
46494;DHT22;53214;49.314;6.280;2022-07-23T01:12:23;20.30;99.90
46494;DHT22;53214;49.314;6.280;2022-07-23T01:14:59;20.30;99.90
46494;DHT22;53214;49.314;6.280;2022-07-23T01:17:27;20.20;99.90
46494;DHT22;53214;49.314;6.280;2022-07-23T01:19:54;20.20;99.90
46494;DHT22;53214;49.314;6.280;2022-07-23T01:22:21;20.10;99.90
46494;DHT22;53214;49.314;6.280;2022-07-23T01:24:49;20.10;99.90
46494;DHT22;53214;49.314;6.280;2022-07-23T01:27:16;20.20;99.90
46494;DHT22;53214;49.314;6.280;2022-07-23T01:29:44;20.20;99.90
46494;DHT22;53214;49.314;6.280;2022-07-23T01:32:11;20.30;99.90
46494;DHT22;53214;49.314;6.280;2022-07-23T01:34:38;20.30;99.90
46494;DHT22;53214;49.314;6.280;2022-07-23T01:37:07;20.30;99.90
46494;DHT22;53214;49.314;6.280;2022-07-23T01:39:34;20.30;99.90
46494;DHT22;53214;49.314;6.280;2022-07-23T01:42:01;20.30;99.90
46494;DHT22;53214;49.314;6.280;2022-07-23T01:44:28;20.20;99.90
46494;DHT22;53214;49.314;6.280;2022-07-23T01:46:55;20.20;99.90
46494;DHT22;53214;49.314;6.280;2022-07-23T01:49:22;20.20;99.90
46494;DHT22;53214;49.314;6.280;2022-07-23T01:51:49;20.20;99.90
46494;DHT22;53214;49.314;6.280;2022-07-23T01:54:33;20.20;99.90
46494;DHT22;53214;49.314;6.280;2022-07-23T01:57:00;20.20;99.90
46494;DHT22;53214;49.314;6.280;2022-07-23T01:59:28;20.20;99.90
46494;DHT22;53214;49.314;6.280;2022-07-23T02:01:55;20.20;99.90
46494;DHT22;53214;49.314;6.280;2022-07-23T02:04:23;20.10;99.90
46494;DHT22;53214;49.314;6.280;2022-07-23T02:06:51;20.10;99.90
46494;DHT22;53214;49.314;6.280;2022-07-23T02:09:18;20.20;99.90
46494;DHT22;53214;49.314;6.280;2022-07-23T02:11:46;20.10;99.90
46494;DHT22;53214;49.314;6.280;2022-07-23T02:14:13;20.10;99.90
46494;DHT22;53214;49.314;6.280;2022-07-23T02:16:39;20.10;99.90
46494;DHT22;53214;49.314;6.280;2022-07-23T02:19:06;20.10;99.90
46494;DHT22;53214;49.314;6.280;2022-07-23T02:21:33;20.20;99.90
46494;DHT22;53214;49.314;6.280;2022-07-23T02:24:00;20.10;99.90
46494;DHT22;53214;49.314;6.280;2022-07-23T02:26:27;20.10;99.90
46494;DHT22;53214;49.314;6.280;2022-07-23T02:28:54;20.10;99.90
46494;DHT22;53214;49.314;6.280;2022-07-23T02:31:21;20.20;99.90
46494;DHT22;53214;49.314;6.280;2022-07-23T02:33:48;20.20;99.90
46494;DHT22;53214;49.314;6.280;2022-07-23T02:36:15;20.20;99.90
46494;DHT22;53214;49.314;6.280;2022-07-23T02:38:42;20.30;99.90
46494;DHT22;53214;49.314;6.280;2022-07-23T02:41:09;20.30;99.90
46494;DHT22;53214;49.314;6.280;2022-07-23T02:43:36;20.30;99.90
46494;DHT22;53214;49.314;6.280;2022-07-23T02:46:03;20.20;99.90
46494;DHT22;53214;49.314;6.280;2022-07-23T02:48:30;20.20;99.90
46494;DHT22;53214;49.314;6.280;2022-07-23T02:50:57;20.20;99.90
46494;DHT22;53214;49.314;6.280;2022-07-23T02:53:24;20.20;99.90
46494;DHT22;53214;49.314;6.280;2022-07-23T02:55:51;20.20;99.90
46494;DHT22;53214;49.314;6.280;2022-07-23T02:58:18;20.20;99.90
46494;DHT22;53214;49.314;6.280;2022-07-23T03:00:45;20.20;99.90
46494;DHT22;53214;49.314;6.280;2022-07-23T03:03:12;20.10;99.90
46494;DHT22;53214;49.314;6.280;2022-07-23T03:05:39;20.00;99.90
46494;DHT22;53214;49.314;6.280;2022-07-23T03:08:06;20.00;99.90
46494;DHT22;53214;49.314;6.280;2022-07-23T03:10:32;20.00;99.90
46494;DHT22;53214;49.314;6.280;2022-07-23T03:12:59;20.00;99.90
46494;DHT22;53214;49.314;6.280;2022-07-23T03:15:26;20.00;99.90
46494;DHT22;53214;49.314;6.280;2022-07-23T03:17:53;20.00;99.90
46494;DHT22;53214;49.314;6.280;2022-07-23T03:20:20;19.90;99.90
46494;DHT22;53214;49.314;6.280;2022-07-23T03:22:47;19.90;99.90
46494;DHT22;53214;49.314;6.280;2022-07-23T03:25:14;19.90;99.90
46494;DHT22;53214;49.314;6.280;2022-07-23T03:27:41;19.90;99.90
46494;DHT22;53214;49.314;6.280;2022-07-23T03:30:08;19.90;99.90
46494;DHT22;53214;49.314;6.280;2022-07-23T03:32:35;19.90;99.90
46494;DHT22;53214;49.314;6.280;2022-07-23T03:35:02;19.90;99.90
46494;DHT22;53214;49.314;6.280;2022-07-23T03:37:32;19.90;99.90
46494;DHT22;53214;49.314;6.280;2022-07-23T03:40:00;19.90;99.90
46494;DHT22;53214;49.314;6.280;2022-07-23T03:42:27;19.90;99.90
46494;DHT22;53214;49.314;6.280;2022-07-23T03:44:54;19.90;99.90
46494;DHT22;53214;49.314;6.280;2022-07-23T03:47:21;19.90;99.90
46494;DHT22;53214;49.314;6.280;2022-07-23T03:49:49;19.80;99.90
46494;DHT22;53214;49.314;6.280;2022-07-23T03:52:16;19.90;99.90
46494;DHT22;53214;49.314;6.280;2022-07-23T03:54:43;19.80;99.90
46494;DHT22;53214;49.314;6.280;2022-07-23T03:57:10;19.80;99.90
46494;DHT22;53214;49.314;6.280;2022-07-23T03:59:37;19.70;99.90
46494;DHT22;53214;49.314;6.280;2022-07-23T04:02:04;19.60;99.90
46494;DHT22;53214;49.314;6.280;2022-07-23T04:04:31;19.50;99.90
46494;DHT22;53214;49.314;6.280;2022-07-23T04:06:58;19.50;99.90
46494;DHT22;53214;49.314;6.280;2022-07-23T04:09:25;19.50;99.90
46494;DHT22;53214;49.314;6.280;2022-07-23T04:11:52;19.40;99.90
46494;DHT22;53214;49.314;6.280;2022-07-23T04:14:18;19.50;99.90
46494;DHT22;53214;49.314;6.280;2022-07-23T04:16:45;19.50;99.90
46494;DHT22;53214;49.314;6.280;2022-07-23T04:19:12;19.50;99.90
46494;DHT22;53214;49.314;6.280;2022-07-23T04:21:39;19.50;99.90
46494;DHT22;53214;49.314;6.280;2022-07-23T04:24:06;19.50;99.90
46494;DHT22;53214;49.314;6.280;2022-07-23T04:26:33;19.50;99.90
46494;DHT22;53214;49.314;6.280;2022-07-23T04:29:00;19.40;99.90
46494;DHT22;53214;49.314;6.280;2022-07-23T04:31:28;19.50;99.90
46494;DHT22;53214;49.314;6.280;2022-07-23T04:34:02;19.50;99.90
46494;DHT22;53214;49.314;6.280;2022-07-23T04:36:29;19.50;99.90
46494;DHT22;53214;49.314;6.280;2022-07-23T04:38:56;19.50;99.90
46494;DHT22;53214;49.314;6.280;2022-07-23T04:41:23;19.50;99.90
46494;DHT22;53214;49.314;6.280;2022-07-23T04:43:50;19.40;99.90
46494;DHT22;53214;49.314;6.280;2022-07-23T04:46:17;19.40;99.90
46494;DHT22;53214;49.314;6.280;2022-07-23T04:48:44;19.40;99.90
46494;DHT22;53214;49.314;6.280;2022-07-23T04:51:11;19.40;99.90
46494;DHT22;53214;49.314;6.280;2022-07-23T04:53:38;19.40;99.90
46494;DHT22;53214;49.314;6.280;2022-07-23T04:56:06;19.40;99.90
46494;DHT22;53214;49.314;6.280;2022-07-23T04:58:33;19.50;99.90
46494;DHT22;53214;49.314;6.280;2022-07-23T05:01:00;19.50;99.90
46494;DHT22;53214;49.314;6.280;2022-07-23T05:03:27;19.40;99.90
46494;DHT22;53214;49.314;6.280;2022-07-23T05:05:54;19.50;99.90
46494;DHT22;53214;49.314;6.280;2022-07-23T05:08:21;19.50;99.90
46494;DHT22;53214;49.314;6.280;2022-07-23T05:10:48;19.50;99.90
46494;DHT22;53214;49.314;6.280;2022-07-23T05:13:15;19.60;99.90
46494;DHT22;53214;49.314;6.280;2022-07-23T05:15:43;19.60;99.90
46494;DHT22;53214;49.314;6.280;2022-07-23T05:18:11;19.60;99.90
46494;DHT22;53214;49.314;6.280;2022-07-23T05:20:38;19.70;99.90
46494;DHT22;53214;49.314;6.280;2022-07-23T05:23:05;19.90;99.90
46494;DHT22;53214;49.314;6.280;2022-07-23T05:25:31;20.00;99.90
46494;DHT22;53214;49.314;6.280;2022-07-23T05:27:58;20.10;99.90
46494;DHT22;53214;49.314;6.280;2022-07-23T05:30:25;20.20;99.90
46494;DHT22;53214;49.314;6.280;2022-07-23T05:32:52;20.30;99.90
46494;DHT22;53214;49.314;6.280;2022-07-23T05:35:19;20.40;99.90
46494;DHT22;53214;49.314;6.280;2022-07-23T05:37:46;20.40;99.90
46494;DHT22;53214;49.314;6.280;2022-07-23T05:40:13;20.50;99.90
46494;DHT22;53214;49.314;6.280;2022-07-23T05:42:41;20.50;99.90
46494;DHT22;53214;49.314;6.280;2022-07-23T05:45:10;20.50;99.90
46494;DHT22;53214;49.314;6.280;2022-07-23T05:47:55;20.50;99.90
46494;DHT22;53214;49.314;6.280;2022-07-23T05:50:21;20.40;99.90
46494;DHT22;53214;49.314;6.280;2022-07-23T05:52:48;20.40;99.90
46494;DHT22;53214;49.314;6.280;2022-07-23T05:55:15;20.50;99.90
46494;DHT22;53214;49.314;6.280;2022-07-23T05:57:42;20.50;99.90
46494;DHT22;53214;49.314;6.280;2022-07-23T06:00:10;20.50;99.90
46494;DHT22;53214;49.314;6.280;2022-07-23T06:02:38;20.60;99.90
46494;DHT22;53214;49.314;6.280;2022-07-23T06:05:06;20.70;99.90
46494;DHT22;53214;49.314;6.280;2022-07-23T06:07:35;20.80;99.90
46494;DHT22;53214;49.314;6.280;2022-07-23T06:10:02;20.70;99.90
46494;DHT22;53214;49.314;6.280;2022-07-23T06:12:29;20.80;99.90
46494;DHT22;53214;49.314;6.280;2022-07-23T06:14:56;20.80;99.90
46494;DHT22;53214;49.314;6.280;2022-07-23T06:17:24;20.90;99.90
46494;DHT22;53214;49.314;6.280;2022-07-23T06:19:52;21.00;99.90
46494;DHT22;53214;49.314;6.280;2022-07-23T06:22:20;21.00;99.90
46494;DHT22;53214;49.314;6.280;2022-07-23T06:24:47;21.10;99.90
46494;DHT22;53214;49.314;6.280;2022-07-23T06:27:14;21.20;99.90
46494;DHT22;53214;49.314;6.280;2022-07-23T06:29:41;21.30;99.90
46494;DHT22;53214;49.314;6.280;2022-07-23T06:32:08;21.30;99.90
46494;DHT22;53214;49.314;6.280;2022-07-23T06:34:35;21.40;99.90
46494;DHT22;53214;49.314;6.280;2022-07-23T06:37:02;21.40;99.90
46494;DHT22;53214;49.314;6.280;2022-07-23T06:39:29;21.40;99.90
46494;DHT22;53214;49.314;6.280;2022-07-23T06:41:56;21.50;99.90
46494;DHT22;53214;49.314;6.280;2022-07-23T06:44:27;21.50;99.90
46494;DHT22;53214;49.314;6.280;2022-07-23T06:46:54;21.50;99.90
46494;DHT22;53214;49.314;6.280;2022-07-23T06:49:21;21.60;99.90
46494;DHT22;53214;49.314;6.280;2022-07-23T06:51:48;21.70;99.90
46494;DHT22;53214;49.314;6.280;2022-07-23T06:54:15;21.70;99.90
46494;DHT22;53214;49.314;6.280;2022-07-23T06:56:41;21.80;99.90
46494;DHT22;53214;49.314;6.280;2022-07-23T06:59:10;21.90;99.90
46494;DHT22;53214;49.314;6.280;2022-07-23T07:01:37;21.90;99.90
46494;DHT22;53214;49.314;6.280;2022-07-23T07:04:04;22.00;99.90
46494;DHT22;53214;49.314;6.280;2022-07-23T07:06:31;22.10;99.90
46494;DHT22;53214;49.314;6.280;2022-07-23T07:08:58;22.20;99.90
46494;DHT22;53214;49.314;6.280;2022-07-23T07:11:25;22.30;99.90
46494;DHT22;53214;49.314;6.280;2022-07-23T07:13:53;22.50;99.90
46494;DHT22;53214;49.314;6.280;2022-07-23T07:16:20;22.90;99.90
46494;DHT22;53214;49.314;6.280;2022-07-23T07:18:46;23.20;99.90
46494;DHT22;53214;49.314;6.280;2022-07-23T07:21:13;23.50;99.90
46494;DHT22;53214;49.314;6.280;2022-07-23T07:23:41;23.70;99.90
46494;DHT22;53214;49.314;6.280;2022-07-23T07:26:08;24.00;99.90
46494;DHT22;53214;49.314;6.280;2022-07-23T07:28:35;24.10;99.90
46494;DHT22;53214;49.314;6.280;2022-07-23T07:31:02;24.20;99.60
46494;DHT22;53214;49.314;6.280;2022-07-23T07:33:29;24.40;99.10
46494;DHT22;53214;49.314;6.280;2022-07-23T07:35:56;24.70;99.00
46494;DHT22;53214;49.314;6.280;2022-07-23T07:38:23;25.00;98.40
46494;DHT22;53214;49.314;6.280;2022-07-23T07:40:50;25.20;98.60
46494;DHT22;53214;49.314;6.280;2022-07-23T07:43:17;25.40;97.60
46494;DHT22;53214;49.314;6.280;2022-07-23T07:45:44;25.80;97.40
46494;DHT22;53214;49.314;6.280;2022-07-23T07:48:11;26.20;97.00
46494;DHT22;53214;49.314;6.280;2022-07-23T07:50:38;26.40;96.00
46494;DHT22;53214;49.314;6.280;2022-07-23T07:53:05;26.50;96.00
46494;DHT22;53214;49.314;6.280;2022-07-23T07:55:32;26.80;95.80
46494;DHT22;53214;49.314;6.280;2022-07-23T07:57:59;26.70;95.10
46494;DHT22;53214;49.314;6.280;2022-07-23T08:00:28;26.70;95.10
46494;DHT22;53214;49.314;6.280;2022-07-23T08:02:55;27.00;95.20
46494;DHT22;53214;49.314;6.280;2022-07-23T08:05:27;27.00;95.10
46494;DHT22;53214;49.314;6.280;2022-07-23T08:07:58;26.90;95.20
46494;DHT22;53214;49.314;6.280;2022-07-23T08:10:27;26.80;94.70
46494;DHT22;53214;49.314;6.280;2022-07-23T08:12:56;26.80;94.60
46494;DHT22;53214;49.314;6.280;2022-07-23T08:15:25;26.60;94.80
46494;DHT22;53214;49.314;6.280;2022-07-23T08:17:53;26.80;95.20
46494;DHT22;53214;49.314;6.280;2022-07-23T08:20:23;27.00;94.70
46494;DHT22;53214;49.314;6.280;2022-07-23T08:22:54;27.30;94.20
46494;DHT22;53214;49.314;6.280;2022-07-23T08:25:27;27.60;93.60
46494;DHT22;53214;49.314;6.280;2022-07-23T08:27:57;27.70;93.10
46494;DHT22;53214;49.314;6.280;2022-07-23T08:30:24;27.70;92.70
46494;DHT22;53214;49.314;6.280;2022-07-23T08:33:02;27.90;92.80
46494;DHT22;53214;49.314;6.280;2022-07-23T08:35:32;28.30;91.60
46494;DHT22;53214;49.314;6.280;2022-07-23T08:38:00;28.40;91.30
46494;DHT22;53214;49.314;6.280;2022-07-23T08:40:33;28.60;91.20
46494;DHT22;53214;49.314;6.280;2022-07-23T08:43:06;28.70;90.50
46494;DHT22;53214;49.314;6.280;2022-07-23T08:45:38;29.00;89.80
46494;DHT22;53214;49.314;6.280;2022-07-23T08:48:09;29.20;89.00
46494;DHT22;53214;49.314;6.280;2022-07-23T08:50:37;29.20;87.70
46494;DHT22;53214;49.314;6.280;2022-07-23T08:53:07;29.40;85.50
46494;DHT22;53214;49.314;6.280;2022-07-23T08:55:34;29.70;86.10
46494;DHT22;53214;49.314;6.280;2022-07-23T08:58:01;30.20;85.90
46494;DHT22;53214;49.314;6.280;2022-07-23T09:00:29;30.20;84.80
46494;DHT22;53214;49.314;6.280;2022-07-23T09:02:56;30.20;84.40
46494;DHT22;53214;49.314;6.280;2022-07-23T09:05:23;30.00;84.30
46494;DHT22;53214;49.314;6.280;2022-07-23T09:08:14;30.20;83.80
46494;DHT22;53214;49.314;6.280;2022-07-23T09:10:58;30.20;82.90
46494;DHT22;53214;49.314;6.280;2022-07-23T09:16:19;30.50;81.10
46494;DHT22;53214;49.314;6.280;2022-07-23T09:18:50;30.20;81.40
46494;DHT22;53214;49.314;6.280;2022-07-23T09:26:22;30.70;81.10
46494;DHT22;53214;49.314;6.280;2022-07-23T09:28:52;31.20;79.30
46494;DHT22;53214;49.314;6.280;2022-07-23T09:31:20;31.20;78.10
46494;DHT22;53214;49.314;6.280;2022-07-23T09:33:47;31.40;77.30
46494;DHT22;53214;49.314;6.280;2022-07-23T09:36:15;31.10;77.70
46494;DHT22;53214;49.314;6.280;2022-07-23T09:38:49;31.10;77.40
46494;DHT22;53214;49.314;6.280;2022-07-23T09:41:17;31.50;75.90
46494;DHT22;53214;49.314;6.280;2022-07-23T09:43:45;31.80;75.30
46494;DHT22;53214;49.314;6.280;2022-07-23T09:48:47;32.70;73.20
46494;DHT22;53214;49.314;6.280;2022-07-23T09:51:14;32.90;72.00
46494;DHT22;53214;49.314;6.280;2022-07-23T09:53:44;33.20;70.60
46494;DHT22;53214;49.314;6.280;2022-07-23T09:56:13;33.30;69.90
46494;DHT22;53214;49.314;6.280;2022-07-23T09:58:41;33.20;68.00
46494;DHT22;53214;49.314;6.280;2022-07-23T10:01:14;33.30;67.80
46494;DHT22;53214;49.314;6.280;2022-07-23T10:03:42;33.60;67.90
46494;DHT22;53214;49.314;6.280;2022-07-23T10:06:09;34.70;66.80
46494;DHT22;53214;49.314;6.280;2022-07-23T10:08:40;34.30;65.40
46494;DHT22;53214;49.314;6.280;2022-07-23T10:11:09;34.20;65.10
46494;DHT22;53214;49.314;6.280;2022-07-23T10:13:38;34.80;63.40
46494;DHT22;53214;49.314;6.280;2022-07-23T10:16:26;34.90;62.80
46494;DHT22;53214;49.314;6.280;2022-07-23T10:18:53;34.80;62.30
46494;DHT22;53214;49.314;6.280;2022-07-23T10:21:27;34.80;61.70
46494;DHT22;53214;49.314;6.280;2022-07-23T10:24:04;35.60;61.30
46494;DHT22;53214;49.314;6.280;2022-07-23T10:26:38;36.00;58.90
46494;DHT22;53214;49.314;6.280;2022-07-23T10:37:49;37.20;55.00
46494;DHT22;53214;49.314;6.280;2022-07-23T10:40:19;37.20;54.80
46494;DHT22;53214;49.314;6.280;2022-07-23T10:42:48;37.00;55.40
46494;DHT22;53214;49.314;6.280;2022-07-23T10:45:34;37.30;54.80
46494;DHT22;53214;49.314;6.280;2022-07-23T10:48:22;38.20;52.70
46494;DHT22;53214;49.314;6.280;2022-07-23T10:53:54;38.70;51.40
46494;DHT22;53214;49.314;6.280;2022-07-23T10:56:50;38.60;51.10
46494;DHT22;53214;49.314;6.280;2022-07-23T10:59:30;38.90;50.30
46494;DHT22;53214;49.314;6.280;2022-07-23T11:02:22;38.30;50.50
46494;DHT22;53214;49.314;6.280;2022-07-23T11:04:52;37.90;50.30
46494;DHT22;53214;49.314;6.280;2022-07-23T11:07:20;38.20;51.30
46494;DHT22;53214;49.314;6.280;2022-07-23T11:09:48;37.40;50.70
46494;DHT22;53214;49.314;6.280;2022-07-23T11:17:35;35.60;51.60
46494;DHT22;53214;49.314;6.280;2022-07-23T11:22:47;33.90;55.30
46494;DHT22;53214;49.314;6.280;2022-07-23T11:28:13;35.00;53.50
46494;DHT22;53214;49.314;6.280;2022-07-23T11:30:45;35.30;53.10
46494;DHT22;53214;49.314;6.280;2022-07-23T11:35:47;34.50;53.90
46494;DHT22;53214;49.314;6.280;2022-07-23T11:38:22;34.00;54.70
46494;DHT22;53214;49.314;6.280;2022-07-23T11:40:54;33.50;55.50
46494;DHT22;53214;49.314;6.280;2022-07-23T11:43:21;33.40;56.10
46494;DHT22;53214;49.314;6.280;2022-07-23T11:45:51;33.10;56.90
46494;DHT22;53214;49.314;6.280;2022-07-23T11:48:29;32.80;57.00
46494;DHT22;53214;49.314;6.280;2022-07-23T11:50:57;33.00;56.90
46494;DHT22;53214;49.314;6.280;2022-07-23T11:53:26;33.40;56.40
46494;DHT22;53214;49.314;6.280;2022-07-23T11:56:02;33.90;55.90
46494;DHT22;53214;49.314;6.280;2022-07-23T11:58:30;34.60;55.20
46494;DHT22;53214;49.314;6.280;2022-07-23T12:00:57;34.90;54.10
46494;DHT22;53214;49.314;6.280;2022-07-23T12:03:25;35.20;53.80
46494;DHT22;53214;49.314;6.280;2022-07-23T12:05:56;35.20;53.40
46494;DHT22;53214;49.314;6.280;2022-07-23T12:08:24;35.10;53.10
46494;DHT22;53214;49.314;6.280;2022-07-23T12:10:51;35.30;53.60
46494;DHT22;53214;49.314;6.280;2022-07-23T12:13:19;35.30;53.60
46494;DHT22;53214;49.314;6.280;2022-07-23T12:15:50;35.90;52.10
46494;DHT22;53214;49.314;6.280;2022-07-23T12:18:20;35.80;52.60
46494;DHT22;53214;49.314;6.280;2022-07-23T12:20:56;35.70;51.80
46494;DHT22;53214;49.314;6.280;2022-07-23T12:23:25;35.60;51.70
46494;DHT22;53214;49.314;6.280;2022-07-23T12:25:53;35.20;52.60
46494;DHT22;53214;49.314;6.280;2022-07-23T12:28:28;35.50;52.60
46494;DHT22;53214;49.314;6.280;2022-07-23T12:30:57;34.90;52.30
46494;DHT22;53214;49.314;6.280;2022-07-23T12:33:32;33.20;55.60
46494;DHT22;53214;49.314;6.280;2022-07-23T12:36:09;33.70;55.50
46494;DHT22;53214;49.314;6.280;2022-07-23T12:38:47;34.50;53.80
46494;DHT22;53214;49.314;6.280;2022-07-23T12:41:16;34.90;52.10
46494;DHT22;53214;49.314;6.280;2022-07-23T12:43:45;34.30;53.30
46494;DHT22;53214;49.314;6.280;2022-07-23T12:46:20;34.70;53.00
46494;DHT22;53214;49.314;6.280;2022-07-23T12:51:21;34.20;52.90
46494;DHT22;53214;49.314;6.280;2022-07-23T12:53:54;34.90;52.60
46494;DHT22;53214;49.314;6.280;2022-07-23T12:56:32;35.40;51.90
46494;DHT22;53214;49.314;6.280;2022-07-23T12:59:07;36.20;50.40
46494;DHT22;53214;49.314;6.280;2022-07-23T13:01:54;37.20;49.40
46494;DHT22;53214;49.314;6.280;2022-07-23T13:04:24;37.90;48.50
46494;DHT22;53214;49.314;6.280;2022-07-23T13:06:56;38.00;48.50
46494;DHT22;53214;49.314;6.280;2022-07-23T13:09:27;38.00;48.10
46494;DHT22;53214;49.314;6.280;2022-07-23T13:12:00;37.80;47.60
46494;DHT22;53214;49.314;6.280;2022-07-23T13:14:28;36.40;49.30
46494;DHT22;53214;49.314;6.280;2022-07-23T13:16:56;35.40;50.20
46494;DHT22;53214;49.314;6.280;2022-07-23T13:19:25;34.70;51.40
46494;DHT22;53214;49.314;6.280;2022-07-23T13:21:53;34.60;51.50
46494;DHT22;53214;49.314;6.280;2022-07-23T13:24:21;34.50;51.60
46494;DHT22;53214;49.314;6.280;2022-07-23T13:26:48;34.20;52.40
46494;DHT22;53214;49.314;6.280;2022-07-23T13:29:17;33.70;52.20
46494;DHT22;53214;49.314;6.280;2022-07-23T13:31:45;33.10;53.10
46494;DHT22;53214;49.314;6.280;2022-07-23T13:34:13;32.70;53.20
46494;DHT22;53214;49.314;6.280;2022-07-23T13:36:40;32.50;54.10
46494;DHT22;53214;49.314;6.280;2022-07-23T13:39:07;32.10;54.60
46494;DHT22;53214;49.314;6.280;2022-07-23T13:41:36;31.60;55.10
46494;DHT22;53214;49.314;6.280;2022-07-23T13:44:04;31.50;55.50
46494;DHT22;53214;49.314;6.280;2022-07-23T13:46:32;31.60;55.80
46494;DHT22;53214;49.314;6.280;2022-07-23T13:49:00;31.70;55.20
46494;DHT22;53214;49.314;6.280;2022-07-23T13:51:28;32.00;54.70
46494;DHT22;53214;49.314;6.280;2022-07-23T13:53:55;33.10;53.70
46494;DHT22;53214;49.314;6.280;2022-07-23T13:56:26;34.20;51.60
46494;DHT22;53214;49.314;6.280;2022-07-23T13:58:53;35.40;50.40
46494;DHT22;53214;49.314;6.280;2022-07-23T14:01:20;36.40;48.20
46494;DHT22;53214;49.314;6.280;2022-07-23T14:03:47;35.20;48.80
46494;DHT22;53214;49.314;6.280;2022-07-23T14:06:14;34.20;48.80
46494;DHT22;53214;49.314;6.280;2022-07-23T14:08:45;33.40;49.40
46494;DHT22;53214;49.314;6.280;2022-07-23T14:11:13;33.50;49.30
46494;DHT22;53214;49.314;6.280;2022-07-23T14:13:40;34.00;49.10
46494;DHT22;53214;49.314;6.280;2022-07-23T14:16:07;34.50;49.50
46494;DHT22;53214;49.314;6.280;2022-07-23T14:18:34;35.40;48.80
46494;DHT22;53214;49.314;6.280;2022-07-23T14:21:03;35.60;49.20
46494;DHT22;53214;49.314;6.280;2022-07-23T14:23:32;35.70;49.40
46494;DHT22;53214;49.314;6.280;2022-07-23T14:26:00;35.60;49.20
46494;DHT22;53214;49.314;6.280;2022-07-23T14:28:32;35.70;49.70
46494;DHT22;53214;49.314;6.280;2022-07-23T14:31:01;35.70;49.30
46494;DHT22;53214;49.314;6.280;2022-07-23T14:33:29;35.20;47.40
46494;DHT22;53214;49.314;6.280;2022-07-23T14:35:56;33.70;49.40
46494;DHT22;53214;49.314;6.280;2022-07-23T14:38:23;33.60;49.90
46494;DHT22;53214;49.314;6.280;2022-07-23T14:40:50;33.40;50.50
46494;DHT22;53214;49.314;6.280;2022-07-23T14:43:17;33.40;50.90
46494;DHT22;53214;49.314;6.280;2022-07-23T14:45:44;33.50;50.60
46494;DHT22;53214;49.314;6.280;2022-07-23T14:48:14;33.20;50.50
46494;DHT22;53214;49.314;6.280;2022-07-23T14:50:41;32.90;50.30
46494;DHT22;53214;49.314;6.280;2022-07-23T14:53:08;32.60;51.00
46494;DHT22;53214;49.314;6.280;2022-07-23T14:55:35;32.40;52.70
46494;DHT22;53214;49.314;6.280;2022-07-23T14:58:02;32.30;51.90
46494;DHT22;53214;49.314;6.280;2022-07-23T15:00:29;32.00;51.70
46494;DHT22;53214;49.314;6.280;2022-07-23T15:02:56;31.60;52.00
46494;DHT22;53214;49.314;6.280;2022-07-23T15:05:24;31.60;52.40
46494;DHT22;53214;49.314;6.280;2022-07-23T15:07:52;31.50;52.10
46494;DHT22;53214;49.314;6.280;2022-07-23T15:10:19;31.50;51.80
46494;DHT22;53214;49.314;6.280;2022-07-23T15:12:49;31.80;51.80
46494;DHT22;53214;49.314;6.280;2022-07-23T15:15:16;32.00;52.10
46494;DHT22;53214;49.314;6.280;2022-07-23T15:17:44;32.00;51.80
46494;DHT22;53214;49.314;6.280;2022-07-23T15:20:11;31.90;52.70
46494;DHT22;53214;49.314;6.280;2022-07-23T15:22:43;31.80;52.60
46494;DHT22;53214;49.314;6.280;2022-07-23T15:25:11;31.50;52.80
46494;DHT22;53214;49.314;6.280;2022-07-23T15:27:38;31.30;53.20
46494;DHT22;53214;49.314;6.280;2022-07-23T15:30:06;31.10;53.70
46494;DHT22;53214;49.314;6.280;2022-07-23T15:32:34;30.90;54.30
46494;DHT22;53214;49.314;6.280;2022-07-23T15:35:01;31.00;54.20
46494;DHT22;53214;49.314;6.280;2022-07-23T15:37:32;30.90;54.40
46494;DHT22;53214;49.314;6.280;2022-07-23T15:40:01;30.80;55.00
46494;DHT22;53214;49.314;6.280;2022-07-23T15:42:28;30.70;54.30
46494;DHT22;53214;49.314;6.280;2022-07-23T15:44:55;30.70;54.50
46494;DHT22;53214;49.314;6.280;2022-07-23T15:47:22;30.90;54.00
46494;DHT22;53214;49.314;6.280;2022-07-23T15:49:51;31.00;53.90
46494;DHT22;53214;49.314;6.280;2022-07-23T15:52:18;31.00;53.00
46494;DHT22;53214;49.314;6.280;2022-07-23T15:54:47;30.70;53.00
46494;DHT22;53214;49.314;6.280;2022-07-23T15:57:14;30.70;53.60
46494;DHT22;53214;49.314;6.280;2022-07-23T15:59:41;30.60;53.20
46494;DHT22;53214;49.314;6.280;2022-07-23T16:02:08;30.40;53.10
46494;DHT22;53214;49.314;6.280;2022-07-23T16:04:35;30.40;53.20
46494;DHT22;53214;49.314;6.280;2022-07-23T16:07:02;30.50;53.20
46494;DHT22;53214;49.314;6.280;2022-07-23T16:09:30;30.20;53.60
46494;DHT22;53214;49.314;6.280;2022-07-23T16:11:57;30.10;54.10
46494;DHT22;53214;49.314;6.280;2022-07-23T16:14:24;30.00;53.10
46494;DHT22;53214;49.314;6.280;2022-07-23T16:16:51;30.10;53.70